sensor_id;sensor_type;location;lat;lon;timestamp;temperature;humidity
59208;DHT22;44977;53.132;6.408;2023-04-03T00:02:19;3.70;97.60
59208;DHT22;44977;53.132;6.408;2023-04-03T00:07:19;3.60;98.20
59208;DHT22;44977;53.132;6.408;2023-04-03T00:12:20;3.50;98.20
59208;DHT22;44977;53.132;6.408;2023-04-03T00:17:21;3.50;98.60
59208;DHT22;44977;53.132;6.408;2023-04-03T00:22:22;3.40;98.50
59208;DHT22;44977;53.132;6.408;2023-04-03T00:27:22;3.40;98.40
59208;DHT22;44977;53.132;6.408;2023-04-03T00:32:23;3.30;98.20
59208;DHT22;44977;53.132;6.408;2023-04-03T00:37:24;3.30;98.20
59208;DHT22;44977;53.132;6.408;2023-04-03T00:42:24;3.30;98.30
59208;DHT22;44977;53.132;6.408;2023-04-03T00:47:26;3.20;98.20
59208;DHT22;44977;53.132;6.408;2023-04-03T00:52:29;3.10;98.80
59208;DHT22;44977;53.132;6.408;2023-04-03T00:57:30;3.10;98.80
59208;DHT22;44977;53.132;6.408;2023-04-03T01:02:32;3.00;99.30
59208;DHT22;44977;53.132;6.408;2023-04-03T01:07:33;3.00;99.90
59208;DHT22;44977;53.132;6.408;2023-04-03T01:12:40;2.90;99.90
59208;DHT22;44977;53.132;6.408;2023-04-03T01:17:51;2.90;99.90
59208;DHT22;44977;53.132;6.408;2023-04-03T01:28:08;2.70;99.90
59208;DHT22;44977;53.132;6.408;2023-04-03T01:33:10;2.70;99.90
59208;DHT22;44977;53.132;6.408;2023-04-03T01:38:11;2.60;99.90
59208;DHT22;44977;53.132;6.408;2023-04-03T01:43:11;2.60;99.90
59208;DHT22;44977;53.132;6.408;2023-04-03T01:48:12;2.60;99.90
59208;DHT22;44977;53.132;6.408;2023-04-03T01:53:14;2.50;99.90
59208;DHT22;44977;53.132;6.408;2023-04-03T01:58:15;2.40;99.90
59208;DHT22;44977;53.132;6.408;2023-04-03T02:03:15;2.40;99.90
59208;DHT22;44977;53.132;6.408;2023-04-03T02:08:16;2.30;99.90
59208;DHT22;44977;53.132;6.408;2023-04-03T02:13:20;2.30;99.90
59208;DHT22;44977;53.132;6.408;2023-04-03T02:18:21;2.20;99.90
59208;DHT22;44977;53.132;6.408;2023-04-03T02:23:22;2.20;99.90
59208;DHT22;44977;53.132;6.408;2023-04-03T02:28:22;2.10;99.90
59208;DHT22;44977;53.132;6.408;2023-04-03T02:33:23;2.10;99.90
59208;DHT22;44977;53.132;6.408;2023-04-03T02:38:24;2.00;99.90
59208;DHT22;44977;53.132;6.408;2023-04-03T02:43:25;2.00;99.90
59208;DHT22;44977;53.132;6.408;2023-04-03T02:48:26;1.90;99.90
59208;DHT22;44977;53.132;6.408;2023-04-03T02:53:28;1.90;99.90
59208;DHT22;44977;53.132;6.408;2023-04-03T02:58:28;1.90;99.90
59208;DHT22;44977;53.132;6.408;2023-04-03T03:03:29;1.80;99.90
59208;DHT22;44977;53.132;6.408;2023-04-03T03:08:30;1.80;99.90
59208;DHT22;44977;53.132;6.408;2023-04-03T03:13:31;1.70;99.90
59208;DHT22;44977;53.132;6.408;2023-04-03T03:18:32;1.70;99.90
59208;DHT22;44977;53.132;6.408;2023-04-03T03:23:33;1.70;99.90
59208;DHT22;44977;53.132;6.408;2023-04-03T03:28:35;1.60;99.90
59208;DHT22;44977;53.132;6.408;2023-04-03T03:33:36;1.60;99.90
59208;DHT22;44977;53.132;6.408;2023-04-03T03:38:37;1.60;99.90
59208;DHT22;44977;53.132;6.408;2023-04-03T03:43:38;1.50;99.90
59208;DHT22;44977;53.132;6.408;2023-04-03T03:48:39;1.50;99.90
59208;DHT22;44977;53.132;6.408;2023-04-03T03:53:40;1.50;99.90
59208;DHT22;44977;53.132;6.408;2023-04-03T03:58:41;1.40;99.90
59208;DHT22;44977;53.132;6.408;2023-04-03T04:03:41;1.40;99.90
59208;DHT22;44977;53.132;6.408;2023-04-03T04:08:42;1.30;99.90
59208;DHT22;44977;53.132;6.408;2023-04-03T04:13:43;1.30;99.90
59208;DHT22;44977;53.132;6.408;2023-04-03T04:18:43;1.30;99.90
59208;DHT22;44977;53.132;6.408;2023-04-03T04:23:44;1.30;99.90
59208;DHT22;44977;53.132;6.408;2023-04-03T04:28:45;1.20;99.90
59208;DHT22;44977;53.132;6.408;2023-04-03T04:33:46;1.20;99.90
59208;DHT22;44977;53.132;6.408;2023-04-03T04:38:46;1.20;99.90
59208;DHT22;44977;53.132;6.408;2023-04-03T04:43:50;1.10;99.90
59208;DHT22;44977;53.132;6.408;2023-04-03T04:48:51;1.10;99.90
59208;DHT22;44977;53.132;6.408;2023-04-03T04:53:51;1.00;99.90
59208;DHT22;44977;53.132;6.408;2023-04-03T04:58:52;1.00;99.90
59208;DHT22;44977;53.132;6.408;2023-04-03T05:03:52;0.90;99.90
59208;DHT22;44977;53.132;6.408;2023-04-03T05:08:54;0.90;99.90
59208;DHT22;44977;53.132;6.408;2023-04-03T05:13:54;0.90;99.90
59208;DHT22;44977;53.132;6.408;2023-04-03T05:18:55;0.90;99.90
59208;DHT22;44977;53.132;6.408;2023-04-03T05:23:56;0.80;99.90
59208;DHT22;44977;53.132;6.408;2023-04-03T05:28:56;0.80;99.90
59208;DHT22;44977;53.132;6.408;2023-04-03T05:33:57;0.80;99.90
59208;DHT22;44977;53.132;6.408;2023-04-03T05:38:58;0.80;99.90
59208;DHT22;44977;53.132;6.408;2023-04-03T05:43:59;0.70;99.90
59208;DHT22;44977;53.132;6.408;2023-04-03T05:49:00;0.80;99.90
59208;DHT22;44977;53.132;6.408;2023-04-03T05:54:17;0.80;99.90
59208;DHT22;44977;53.132;6.408;2023-04-03T05:59:20;0.80;99.90
59208;DHT22;44977;53.132;6.408;2023-04-03T06:04:21;0.80;99.90
59208;DHT22;44977;53.132;6.408;2023-04-03T06:09:24;0.90;99.90
59208;DHT22;44977;53.132;6.408;2023-04-03T06:14:26;0.90;99.90
59208;DHT22;44977;53.132;6.408;2023-04-03T06:19:27;1.00;99.90
59208;DHT22;44977;53.132;6.408;2023-04-03T06:24:28;1.10;99.90
59208;DHT22;44977;53.132;6.408;2023-04-03T06:29:28;1.30;99.90
59208;DHT22;44977;53.132;6.408;2023-04-03T06:34:29;1.50;99.90
59208;DHT22;44977;53.132;6.408;2023-04-03T06:39:30;1.60;99.90
59208;DHT22;44977;53.132;6.408;2023-04-03T06:44:30;1.90;99.90
59208;DHT22;44977;53.132;6.408;2023-04-03T06:49:31;2.00;99.90
59208;DHT22;44977;53.132;6.408;2023-04-03T06:54:32;2.20;99.90
59208;DHT22;44977;53.132;6.408;2023-04-03T06:59:33;2.40;99.90
59208;DHT22;44977;53.132;6.408;2023-04-03T07:04:34;2.70;99.90
59208;DHT22;44977;53.132;6.408;2023-04-03T07:09:37;2.80;99.90
59208;DHT22;44977;53.132;6.408;2023-04-03T07:14:38;3.10;99.90
59208;DHT22;44977;53.132;6.408;2023-04-03T07:19:39;3.30;99.90
59208;DHT22;44977;53.132;6.408;2023-04-03T07:24:41;3.50;99.90
59208;DHT22;44977;53.132;6.408;2023-04-03T07:29:41;3.70;99.90
59208;DHT22;44977;53.132;6.408;2023-04-03T07:34:43;3.80;99.90
59208;DHT22;44977;53.132;6.408;2023-04-03T07:39:44;4.10;99.90
59208;DHT22;44977;53.132;6.408;2023-04-03T07:44:45;4.30;99.90
59208;DHT22;44977;53.132;6.408;2023-04-03T07:49:46;4.50;99.90
59208;DHT22;44977;53.132;6.408;2023-04-03T07:54:47;4.70;99.90
59208;DHT22;44977;53.132;6.408;2023-04-03T07:59:48;4.90;99.90
59208;DHT22;44977;53.132;6.408;2023-04-03T08:04:48;5.10;99.90
59208;DHT22;44977;53.132;6.408;2023-04-03T08:09:49;5.30;99.90
59208;DHT22;44977;53.132;6.408;2023-04-03T08:14:50;5.50;99.90
59208;DHT22;44977;53.132;6.408;2023-04-03T08:19:51;5.70;99.90
59208;DHT22;44977;53.132;6.408;2023-04-03T08:24:52;5.90;99.90
59208;DHT22;44977;53.132;6.408;2023-04-03T08:29:52;6.00;97.80
59208;DHT22;44977;53.132;6.408;2023-04-03T08:34:53;6.20;97.30
59208;DHT22;44977;53.132;6.408;2023-04-03T08:39:54;6.40;96.40
59208;DHT22;44977;53.132;6.408;2023-04-03T08:44:59;6.50;93.30
59208;DHT22;44977;53.132;6.408;2023-04-03T08:50:08;6.70;92.60
59208;DHT22;44977;53.132;6.408;2023-04-03T08:55:46;6.80;91.20
59208;DHT22;44977;53.132;6.408;2023-04-03T09:00:51;7.00;90.40
59208;DHT22;44977;53.132;6.408;2023-04-03T09:16:25;7.40;84.20
59208;DHT22;44977;53.132;6.408;2023-04-03T09:21:46;7.60;84.60
59208;DHT22;44977;53.132;6.408;2023-04-03T09:27:04;7.80;83.70
59208;DHT22;44977;53.132;6.408;2023-04-03T09:32:27;8.10;81.70
59208;DHT22;44977;53.132;6.408;2023-04-03T09:37:53;8.30;77.20
59208;DHT22;44977;53.132;6.408;2023-04-03T09:42:57;8.10;75.50
59208;DHT22;44977;53.132;6.408;2023-04-03T09:48:07;8.20;77.30
59208;DHT22;44977;53.132;6.408;2023-04-03T09:53:34;8.50;77.40
59208;DHT22;44977;53.132;6.408;2023-04-03T09:58:40;8.60;75.00
59208;DHT22;44977;53.132;6.408;2023-04-03T10:03:41;8.90;75.40
59208;DHT22;44977;53.132;6.408;2023-04-03T10:08:59;9.10;74.10
59208;DHT22;44977;53.132;6.408;2023-04-03T10:14:02;9.40;73.50
59208;DHT22;44977;53.132;6.408;2023-04-03T10:19:34;9.70;73.00
59208;DHT22;44977;53.132;6.408;2023-04-03T10:24:51;9.90;70.80
59208;DHT22;44977;53.132;6.408;2023-04-03T10:29:55;9.90;68.50
59208;DHT22;44977;53.132;6.408;2023-04-03T10:35:22;10.20;67.00
59208;DHT22;44977;53.132;6.408;2023-04-03T10:40:48;10.10;64.70
59208;DHT22;44977;53.132;6.408;2023-04-03T10:46:23;10.10;62.20
59208;DHT22;44977;53.132;6.408;2023-04-03T10:56:42;10.10;61.00
59208;DHT22;44977;53.132;6.408;2023-04-03T11:01:48;10.10;59.10
59208;DHT22;44977;53.132;6.408;2023-04-03T11:06:58;10.20;59.00
59208;DHT22;44977;53.132;6.408;2023-04-03T11:12:41;10.40;60.10
59208;DHT22;44977;53.132;6.408;2023-04-03T11:23:06;10.60;55.30
59208;DHT22;44977;53.132;6.408;2023-04-03T11:28:14;10.60;57.80
59208;DHT22;44977;53.132;6.408;2023-04-03T11:38:35;10.70;57.10
59208;DHT22;44977;53.132;6.408;2023-04-03T11:48:59;10.80;55.80
59208;DHT22;44977;53.132;6.408;2023-04-03T11:59:38;11.20;56.60
59208;DHT22;44977;53.132;6.408;2023-04-03T12:04:38;11.20;57.00
59208;DHT22;44977;53.132;6.408;2023-04-03T12:14:40;11.30;54.20
59208;DHT22;44977;53.132;6.408;2023-04-03T12:19:41;11.30;54.10
59208;DHT22;44977;53.132;6.408;2023-04-03T12:24:45;11.30;55.40
59208;DHT22;44977;53.132;6.408;2023-04-03T12:29:55;11.20;53.20
59208;DHT22;44977;53.132;6.408;2023-04-03T12:35:35;11.00;53.60
59208;DHT22;44977;53.132;6.408;2023-04-03T12:45:44;11.20;53.60
59208;DHT22;44977;53.132;6.408;2023-04-03T12:50:47;11.10;53.50
59208;DHT22;44977;53.132;6.408;2023-04-03T12:55:56;11.20;54.90
59208;DHT22;44977;53.132;6.408;2023-04-03T13:01:14;11.30;54.70
59208;DHT22;44977;53.132;6.408;2023-04-03T13:11:54;11.10;53.80
59208;DHT22;44977;53.132;6.408;2023-04-03T13:16:58;11.30;57.00
59208;DHT22;44977;53.132;6.408;2023-04-03T13:22:04;11.60;58.10
59208;DHT22;44977;53.132;6.408;2023-04-03T13:27:06;11.70;53.90
59208;DHT22;44977;53.132;6.408;2023-04-03T13:32:17;11.60;55.30
59208;DHT22;44977;53.132;6.408;2023-04-03T13:37:31;11.60;54.40
59208;DHT22;44977;53.132;6.408;2023-04-03T13:42:34;11.70;55.10
59208;DHT22;44977;53.132;6.408;2023-04-03T13:47:42;11.60;53.80
59208;DHT22;44977;53.132;6.408;2023-04-03T13:52:49;11.70;56.90
59208;DHT22;44977;53.132;6.408;2023-04-03T13:58:24;11.70;54.80
59208;DHT22;44977;53.132;6.408;2023-04-03T14:03:26;11.70;55.90
59208;DHT22;44977;53.132;6.408;2023-04-03T14:08:27;11.60;54.70
59208;DHT22;44977;53.132;6.408;2023-04-03T14:13:30;11.60;54.70
59208;DHT22;44977;53.132;6.408;2023-04-03T14:18:31;11.50;54.30
59208;DHT22;44977;53.132;6.408;2023-04-03T14:23:32;11.60;55.30
59208;DHT22;44977;53.132;6.408;2023-04-03T14:28:33;11.60;53.90
59208;DHT22;44977;53.132;6.408;2023-04-03T14:33:34;11.60;55.10
59208;DHT22;44977;53.132;6.408;2023-04-03T14:38:35;11.60;55.20
59208;DHT22;44977;53.132;6.408;2023-04-03T14:43:36;11.60;57.90
59208;DHT22;44977;53.132;6.408;2023-04-03T14:48:36;11.70;57.10
59208;DHT22;44977;53.132;6.408;2023-04-03T14:53:37;11.70;58.20
59208;DHT22;44977;53.132;6.408;2023-04-03T14:58:38;11.70;58.00
59208;DHT22;44977;53.132;6.408;2023-04-03T15:03:39;11.70;58.40
59208;DHT22;44977;53.132;6.408;2023-04-03T15:08:41;11.70;59.00
59208;DHT22;44977;53.132;6.408;2023-04-03T15:13:42;11.70;57.10
59208;DHT22;44977;53.132;6.408;2023-04-03T15:18:44;11.60;56.20
59208;DHT22;44977;53.132;6.408;2023-04-03T15:23:45;11.50;57.30
59208;DHT22;44977;53.132;6.408;2023-04-03T15:28:46;11.50;57.40
59208;DHT22;44977;53.132;6.408;2023-04-03T15:33:46;11.50;57.20
59208;DHT22;44977;53.132;6.408;2023-04-03T15:38:47;11.50;57.50
59208;DHT22;44977;53.132;6.408;2023-04-03T15:43:48;11.40;58.70
59208;DHT22;44977;53.132;6.408;2023-04-03T15:48:48;11.40;56.80
59208;DHT22;44977;53.132;6.408;2023-04-03T15:53:50;11.20;58.20
59208;DHT22;44977;53.132;6.408;2023-04-03T15:58:50;11.10;57.10
59208;DHT22;44977;53.132;6.408;2023-04-03T16:03:51;11.00;57.10
59208;DHT22;44977;53.132;6.408;2023-04-03T16:08:52;10.90;57.20
59208;DHT22;44977;53.132;6.408;2023-04-03T16:13:57;10.80;57.10
59208;DHT22;44977;53.132;6.408;2023-04-03T16:18:58;10.80;58.10
59208;DHT22;44977;53.132;6.408;2023-04-03T16:24:00;10.70;57.60
59208;DHT22;44977;53.132;6.408;2023-04-03T16:29:01;10.60;60.10
59208;DHT22;44977;53.132;6.408;2023-04-03T16:34:02;10.40;61.10
59208;DHT22;44977;53.132;6.408;2023-04-03T16:39:03;10.40;62.00
59208;DHT22;44977;53.132;6.408;2023-04-03T16:44:04;10.20;61.70
59208;DHT22;44977;53.132;6.408;2023-04-03T16:49:05;10.10;59.40
59208;DHT22;44977;53.132;6.408;2023-04-03T16:54:06;9.90;59.40
59208;DHT22;44977;53.132;6.408;2023-04-03T16:59:07;9.80;60.10
59208;DHT22;44977;53.132;6.408;2023-04-03T17:04:08;9.60;61.50
59208;DHT22;44977;53.132;6.408;2023-04-03T17:09:09;9.50;62.10
59208;DHT22;44977;53.132;6.408;2023-04-03T17:14:09;9.30;63.40
59208;DHT22;44977;53.132;6.408;2023-04-03T17:19:10;9.20;64.30
59208;DHT22;44977;53.132;6.408;2023-04-03T17:24:13;8.90;66.10
59208;DHT22;44977;53.132;6.408;2023-04-03T17:29:14;8.80;67.00
59208;DHT22;44977;53.132;6.408;2023-04-03T17:34:15;8.60;67.70
59208;DHT22;44977;53.132;6.408;2023-04-03T17:39:16;8.40;68.80
59208;DHT22;44977;53.132;6.408;2023-04-03T17:44:17;8.30;69.80
59208;DHT22;44977;53.132;6.408;2023-04-03T17:49:17;8.10;71.30
59208;DHT22;44977;53.132;6.408;2023-04-03T17:54:20;8.00;72.10
59208;DHT22;44977;53.132;6.408;2023-04-03T17:59:20;7.90;73.10
59208;DHT22;44977;53.132;6.408;2023-04-03T18:04:21;7.70;73.20
59208;DHT22;44977;53.132;6.408;2023-04-03T18:09:26;7.60;74.50
59208;DHT22;44977;53.132;6.408;2023-04-03T18:14:28;7.40;75.10
59208;DHT22;44977;53.132;6.408;2023-04-03T18:19:29;7.30;75.70
59208;DHT22;44977;53.132;6.408;2023-04-03T18:24:33;7.10;77.20
59208;DHT22;44977;53.132;6.408;2023-04-03T18:29:36;7.00;78.80
59208;DHT22;44977;53.132;6.408;2023-04-03T18:34:38;6.90;79.00
59208;DHT22;44977;53.132;6.408;2023-04-03T18:39:38;6.80;79.80
59208;DHT22;44977;53.132;6.408;2023-04-03T18:44:40;6.70;81.30
59208;DHT22;44977;53.132;6.408;2023-04-03T18:49:42;6.50;83.30
59208;DHT22;44977;53.132;6.408;2023-04-03T18:54:43;6.40;83.80
59208;DHT22;44977;53.132;6.408;2023-04-03T18:59:43;6.40;84.80
59208;DHT22;44977;53.132;6.408;2023-04-03T19:04:44;6.30;85.80
59208;DHT22;44977;53.132;6.408;2023-04-03T19:09:45;6.20;86.80
59208;DHT22;44977;53.132;6.408;2023-04-03T19:14:46;6.10;89.00
59208;DHT22;44977;53.132;6.408;2023-04-03T19:19:46;6.00;89.90
59208;DHT22;44977;53.132;6.408;2023-04-03T19:24:47;5.90;90.40
59208;DHT22;44977;53.132;6.408;2023-04-03T19:29:48;5.80;91.30
59208;DHT22;44977;53.132;6.408;2023-04-03T19:34:49;5.70;92.20
59208;DHT22;44977;53.132;6.408;2023-04-03T19:39:50;5.70;92.70
59208;DHT22;44977;53.132;6.408;2023-04-03T19:44:51;5.60;93.40
59208;DHT22;44977;53.132;6.408;2023-04-03T19:49:52;5.50;94.40
59208;DHT22;44977;53.132;6.408;2023-04-03T19:54:53;5.40;95.00
59208;DHT22;44977;53.132;6.408;2023-04-03T19:59:53;5.30;95.30
59208;DHT22;44977;53.132;6.408;2023-04-03T20:04:54;5.30;95.80
59208;DHT22;44977;53.132;6.408;2023-04-03T20:09:55;5.20;95.80
59208;DHT22;44977;53.132;6.408;2023-04-03T20:14:55;5.20;95.60
59208;DHT22;44977;53.132;6.408;2023-04-03T20:19:58;5.20;96.30
59208;DHT22;44977;53.132;6.408;2023-04-03T20:25:02;5.10;96.20
59208;DHT22;44977;53.132;6.408;2023-04-03T20:30:05;5.10;96.40
59208;DHT22;44977;53.132;6.408;2023-04-03T20:35:08;5.00;96.90
59208;DHT22;44977;53.132;6.408;2023-04-03T20:40:10;5.00;97.20
59208;DHT22;44977;53.132;6.408;2023-04-03T20:45:10;4.90;97.30
59208;DHT22;44977;53.132;6.408;2023-04-03T20:50:13;4.80;97.20
59208;DHT22;44977;53.132;6.408;2023-04-03T20:55:14;4.80;97.50
59208;DHT22;44977;53.132;6.408;2023-04-03T21:00:16;4.80;97.70
59208;DHT22;44977;53.132;6.408;2023-04-03T21:05:18;4.70;97.80
59208;DHT22;44977;53.132;6.408;2023-04-03T21:21:02;4.60;99.90
59208;DHT22;44977;53.132;6.408;2023-04-03T21:26:04;4.50;99.90
59208;DHT22;44977;53.132;6.408;2023-04-03T21:31:05;4.50;99.90
59208;DHT22;44977;53.132;6.408;2023-04-03T21:36:06;4.50;99.90
59208;DHT22;44977;53.132;6.408;2023-04-03T21:41:07;4.40;99.90
59208;DHT22;44977;53.132;6.408;2023-04-03T21:46:07;4.40;99.90
59208;DHT22;44977;53.132;6.408;2023-04-03T21:51:08;4.40;99.90
59208;DHT22;44977;53.132;6.408;2023-04-03T21:56:10;4.30;99.90
59208;DHT22;44977;53.132;6.408;2023-04-03T22:01:12;4.30;99.90
59208;DHT22;44977;53.132;6.408;2023-04-03T22:06:14;4.20;99.90
59208;DHT22;44977;53.132;6.408;2023-04-03T22:11:15;4.10;99.90
59208;DHT22;44977;53.132;6.408;2023-04-03T22:16:16;4.10;99.90
59208;DHT22;44977;53.132;6.408;2023-04-03T22:21:17;4.00;99.90
59208;DHT22;44977;53.132;6.408;2023-04-03T22:26:18;4.00;99.90
59208;DHT22;44977;53.132;6.408;2023-04-03T22:31:18;4.00;99.90
59208;DHT22;44977;53.132;6.408;2023-04-03T22:36:20;3.90;99.90
59208;DHT22;44977;53.132;6.408;2023-04-03T22:41:21;3.90;99.90
59208;DHT22;44977;53.132;6.408;2023-04-03T22:46:21;3.80;99.90
59208;DHT22;44977;53.132;6.408;2023-04-03T22:51:22;3.80;99.90
59208;DHT22;44977;53.132;6.408;2023-04-03T22:56:23;3.70;99.90
59208;DHT22;44977;53.132;6.408;2023-04-03T23:01:24;3.70;99.90
59208;DHT22;44977;53.132;6.408;2023-04-03T23:06:24;3.70;99.90
59208;DHT22;44977;53.132;6.408;2023-04-03T23:11:26;3.60;99.90
59208;DHT22;44977;53.132;6.408;2023-04-03T23:16:26;3.50;99.90
59208;DHT22;44977;53.132;6.408;2023-04-03T23:21:27;3.40;99.90
59208;DHT22;44977;53.132;6.408;2023-04-03T23:26:28;3.30;99.90
59208;DHT22;44977;53.132;6.408;2023-04-03T23:31:29;3.30;99.90
59208;DHT22;44977;53.132;6.408;2023-04-03T23:36:30;3.20;99.90
59208;DHT22;44977;53.132;6.408;2023-04-03T23:41:30;3.20;99.90
59208;DHT22;44977;53.132;6.408;2023-04-03T23:46:31;3.20;99.90
59208;DHT22;44977;53.132;6.408;2023-04-03T23:51:32;3.10;99.90
59208;DHT22;44977;53.132;6.408;2023-04-03T23:56:33;3.00;99.90
